Time;durP1;ratioP1;P1;durP2;ratioP2;P2;SDS_P1;SDS_P2;PMS_P1;PMS_P2;Temp;Humidity;BMP_temperature;BMP_pressure;BME280_temperature;BME280_humidity;BME280_pressure;Samples;Min_cycle;Max_cycle;Signal;HPM_P1;HPM_P2
2024/01/14 00:00:12;;;;;;;16.40;12.80;;;3.90;86.30;;;;;;937439;151;27336;-81
2024/01/14 00:02:38;;;;;;;18.33;13.50;;;3.90;86.50;;;;;;938992;150;27343;-82
2024/01/14 00:05:05;;;;;;;17.97;13.70;;;3.80;86.20;;;;;;938636;151;27407;-81
2024/01/14 00:07:32;;;;;;;19.40;14.07;;;3.80;86.30;;;;;;941311;150;27452;-81
2024/01/14 00:09:58;;;;;;;17.30;12.97;;;3.80;86.40;;;;;;942868;150;27446;-81
2024/01/14 00:12:25;;;;;;;16.27;13.03;;;3.80;86.40;;;;;;942560;150;27300;-87
2024/01/14 00:14:51;;;;;;;17.37;13.00;;;3.80;86.50;;;;;;941521;150;27305;-83
2024/01/14 00:17:18;;;;;;;16.73;12.27;;;3.70;86.50;;;;;;943152;150;27606;-88
2024/01/14 00:19:44;;;;;;;18.17;13.37;;;3.70;86.50;;;;;;942116;150;27395;-87
2024/01/14 00:22:11;;;;;;;22.80;13.57;;;3.70;86.60;;;;;;942555;150;27301;-86
2024/01/14 00:24:38;;;;;;;19.40;13.70;;;3.70;86.70;;;;;;942812;152;27461;-85
2024/01/14 00:27:04;;;;;;;18.60;12.97;;;3.80;86.70;;;;;;942586;150;27829;-88
2024/01/14 00:29:31;;;;;;;20.13;14.20;;;3.70;86.80;;;;;;942632;150;27357;-86
2024/01/14 00:31:58;;;;;;;19.40;13.60;;;3.70;86.80;;;;;;942991;150;27486;-87
2024/01/14 00:34:24;;;;;;;17.73;12.73;;;3.70;86.80;;;;;;942283;149;27393;-87
2024/01/14 00:36:51;;;;;;;18.10;14.17;;;3.80;87.00;;;;;;942792;150;27428;-84
2024/01/14 00:39:17;;;;;;;19.50;14.77;;;3.70;87.00;;;;;;942236;150;27363;-83
2024/01/14 00:41:44;;;;;;;17.57;12.80;;;3.70;87.10;;;;;;942650;150;27301;-88
2024/01/14 00:44:10;;;;;;;20.17;14.23;;;3.70;87.10;;;;;;942558;150;27406;-87
2024/01/14 00:46:37;;;;;;;17.33;12.87;;;3.80;87.10;;;;;;942824;150;27359;-84
2024/01/14 00:49:04;;;;;;;19.67;13.87;;;3.80;87.10;;;;;;942694;150;27386;-86
2024/01/14 00:51:30;;;;;;;21.70;15.03;;;3.80;87.10;;;;;;942598;150;27461;-87
2024/01/14 00:53:57;;;;;;;22.70;15.30;;;3.70;87.10;;;;;;942655;149;27313;-87
2024/01/14 00:56:23;;;;;;;20.23;13.97;;;3.70;87.20;;;;;;942868;149;27460;-88
2024/01/14 00:58:50;;;;;;;20.23;14.63;;;3.80;87.20;;;;;;942199;150;27440;-84
2024/01/14 01:01:16;;;;;;;19.23;14.40;;;3.80;87.30;;;;;;942590;150;27356;-87
2024/01/14 01:03:43;;;;;;;20.63;13.70;;;3.80;87.20;;;;;;942616;150;27416;-85
2024/01/14 01:06:10;;;;;;;19.53;14.30;;;3.70;87.10;;;;;;942423;150;27419;-87
2024/01/14 01:08:36;;;;;;;22.20;15.80;;;3.80;87.30;;;;;;942776;150;27353;-83
2024/01/14 01:11:03;;;;;;;19.43;14.47;;;3.80;87.40;;;;;;942499;150;27468;-86
2024/01/14 01:13:29;;;;;;;18.87;13.83;;;3.70;87.40;;;;;;942587;150;27305;-85
2024/01/14 01:15:56;;;;;;;19.83;13.60;;;3.70;87.50;;;;;;942711;150;27359;-87
2024/01/14 01:18:23;;;;;;;18.90;13.83;;;3.80;87.70;;;;;;942676;150;27301;-85
2024/01/14 01:20:51;;;;;;;19.77;14.17;;;3.70;87.60;;;;;;942876;150;27371;-85
2024/01/14 01:23:16;;;;;;;22.77;14.97;;;3.70;88.40;;;;;;942708;151;27786;-81
2024/01/14 01:25:42;;;;;;;20.80;13.80;;;3.70;87.80;;;;;;942492;150;27417;-81
2024/01/14 01:28:09;;;;;;;22.87;15.27;;;3.70;87.00;;;;;;942518;151;27386;-81
2024/01/14 01:30:36;;;;;;;24.50;16.07;;;3.70;87.90;;;;;;941752;150;27709;-83
2024/01/14 01:33:02;;;;;;;20.73;14.37;;;3.70;88.10;;;;;;942384;150;27357;-81
2024/01/14 01:35:29;;;;;;;22.00;15.10;;;3.60;88.10;;;;;;942012;150;27411;-81
2024/01/14 01:37:55;;;;;;;21.93;14.27;;;3.60;88.20;;;;;;942668;150;27374;-81
2024/01/14 01:40:22;;;;;;;22.90;15.83;;;3.60;88.40;;;;;;942224;150;27336;-82
2024/01/14 01:42:49;;;;;;;25.00;14.93;;;3.50;88.60;;;;;;942533;150;27376;-81
2024/01/14 01:45:15;;;;;;;23.80;15.63;;;3.50;88.80;;;;;;942183;150;27324;-81
2024/01/14 01:47:42;;;;;;;23.93;16.10;;;3.50;89.00;;;;;;942370;150;27682;-81
2024/01/14 01:50:08;;;;;;;22.80;15.10;;;3.40;89.40;;;;;;942352;150;27341;-80
2024/01/14 01:52:35;;;;;;;23.17;15.10;;;3.40;89.60;;;;;;942445;150;27371;-80
2024/01/14 01:55:01;;;;;;;24.03;16.10;;;3.40;89.80;;;;;;942383;150;27741;-81
2024/01/14 01:57:28;;;;;;;25.00;15.43;;;3.40;90.00;;;;;;942275;150;27409;-80
2024/01/14 01:59:55;;;;;;;22.53;15.27;;;3.40;90.10;;;;;;942705;150;27387;-81
2024/01/14 02:02:21;;;;;;;22.90;15.60;;;3.30;90.10;;;;;;941947;150;27394;-83
2024/01/14 02:04:48;;;;;;;21.53;15.30;;;3.30;90.10;;;;;;942715;150;27376;-83
2024/01/14 02:07:14;;;;;;;19.23;14.07;;;3.30;90.20;;;;;;942488;150;27464;-82
2024/01/14 02:09:41;;;;;;;20.33;13.93;;;3.30;90.30;;;;;;942280;152;27349;-81
2024/01/14 02:12:08;;;;;;;23.83;15.10;;;3.30;90.30;;;;;;942679;150;27360;-81
2024/01/14 02:14:34;;;;;;;23.97;15.77;;;3.30;90.40;;;;;;942769;150;27448;-80
2024/01/14 02:17:01;;;;;;;22.17;14.90;;;3.30;90.40;;;;;;942908;150;27293;-80
2024/01/14 02:19:27;;;;;;;25.87;15.97;;;3.30;90.40;;;;;;942729;150;27269;-80
2024/01/14 02:21:57;;;;;;;21.97;14.93;;;3.30;90.50;;;;;;942938;150;27409;-82
2024/01/14 02:24:29;;;;;;;22.10;15.13;;;3.20;90.50;;;;;;938217;150;27373;-80
2024/01/14 02:26:56;;;;;;;19.37;13.53;;;3.20;90.50;;;;;;941169;151;27359;-80
2024/01/14 02:29:23;;;;;;;21.47;13.57;;;3.20;90.60;;;;;;942460;150;27433;-80
2024/01/14 02:31:49;;;;;;;22.83;15.23;;;3.20;90.70;;;;;;942046;150;27397;-81
2024/01/14 02:34:16;;;;;;;21.83;15.07;;;3.20;90.80;;;;;;941982;150;27345;-83
2024/01/14 02:36:42;;;;;;;22.50;15.43;;;3.20;90.80;;;;;;942365;150;27469;-86
2024/01/14 02:39:09;;;;;;;22.30;14.50;;;3.20;90.80;;;;;;942572;150;27893;-86
2024/01/14 02:41:35;;;;;;;21.27;14.33;;;3.10;90.80;;;;;;942561;150;27426;-86
2024/01/14 02:44:02;;;;;;;20.60;14.20;;;3.10;90.80;;;;;;942364;150;27377;-85
2024/01/14 02:46:29;;;;;;;23.17;14.20;;;3.10;90.90;;;;;;942529;150;27364;-85
2024/01/14 02:48:55;;;;;;;21.47;14.77;;;3.10;90.90;;;;;;942820;151;27343;-86
2024/01/14 02:51:22;;;;;;;20.33;14.53;;;3.10;90.80;;;;;;942538;150;27270;-86
2024/01/14 02:53:48;;;;;;;22.93;13.83;;;3.10;90.80;;;;;;942594;150;27290;-84
2024/01/14 02:56:15;;;;;;;21.70;14.27;;;3.10;90.90;;;;;;943200;149;27373;-86
2024/01/14 02:58:42;;;;;;;21.00;14.27;;;3.00;91.00;;;;;;942589;150;27452;-86
2024/01/14 03:01:08;;;;;;;23.47;14.20;;;3.10;91.00;;;;;;942769;150;27273;-84
2024/01/14 03:03:35;;;;;;;19.63;12.80;;;3.10;91.10;;;;;;942938;150;27317;-85
2024/01/14 03:06:02;;;;;;;21.40;13.80;;;3.10;91.10;;;;;;943274;150;27357;-82
2024/01/14 03:08:28;;;;;;;21.37;13.47;;;3.10;91.20;;;;;;942587;150;27411;-86
2024/01/14 03:10:54;;;;;;;22.23;13.30;;;3.10;91.30;;;;;;942933;150;27756;-85
2024/01/14 03:13:21;;;;;;;26.17;15.10;;;3.10;91.30;;;;;;942598;150;27403;-86
2024/01/14 03:15:48;;;;;;;21.67;14.83;;;3.20;91.30;;;;;;942841;150;27395;-83
2024/01/14 03:18:15;;;;;;;23.30;14.30;;;3.20;91.30;;;;;;942692;150;27377;-86
2024/01/14 03:20:41;;;;;;;22.33;14.17;;;3.20;91.20;;;;;;942576;150;27461;-85
2024/01/14 03:23:07;;;;;;;20.90;13.10;;;3.20;91.00;;;;;;942617;150;27352;-81
2024/01/14 03:25:34;;;;;;;21.43;13.57;;;3.20;91.00;;;;;;942761;150;27316;-82
2024/01/14 03:28:01;;;;;;;21.10;13.40;;;3.20;91.10;;;;;;942644;150;27438;-81
2024/01/14 03:30:27;;;;;;;22.63;13.63;;;3.20;91.10;;;;;;942975;150;27356;-81
2024/01/14 03:32:54;;;;;;;21.43;14.20;;;3.20;91.10;;;;;;943150;150;27340;-81
2024/01/14 03:35:20;;;;;;;20.37;13.70;;;3.30;91.10;;;;;;942570;150;27749;-81
2024/01/14 03:37:47;;;;;;;20.90;13.87;;;3.30;91.00;;;;;;942299;151;27498;-84
2024/01/14 03:40:14;;;;;;;20.53;14.20;;;3.20;91.00;;;;;;942791;150;27440;-81
2024/01/14 03:42:40;;;;;;;19.93;13.10;;;3.30;91.10;;;;;;942167;150;28008;-81
2024/01/14 03:45:07;;;;;;;23.33;14.10;;;3.30;91.10;;;;;;942495;150;27304;-83
2024/01/14 03:47:33;;;;;;;21.13;14.50;;;3.30;91.10;;;;;;943234;150;27368;-83
2024/01/14 03:50:00;;;;;;;21.57;13.70;;;3.30;91.10;;;;;;942883;152;27368;-85
2024/01/14 03:52:26;;;;;;;19.00;12.77;;;3.30;91.00;;;;;;942836;150;27266;-86
2024/01/14 03:54:54;;;;;;;21.77;14.17;;;3.30;91.00;;;;;;942601;150;27320;-86
2024/01/14 03:57:20;;;;;;;21.47;13.70;;;3.30;91.00;;;;;;942429;150;27332;-83
2024/01/14 03:59:46;;;;;;;20.77;13.73;;;3.30;91.10;;;;;;942708;150;27380;-86
2024/01/14 04:02:13;;;;;;;23.70;14.23;;;3.30;91.00;;;;;;942888;150;27448;-87
2024/01/14 04:04:39;;;;;;;17.30;12.73;;;3.30;90.90;;;;;;941809;152;27793;-86
2024/01/14 04:07:06;;;;;;;19.67;13.80;;;3.30;90.90;;;;;;942898;150;27830;-84
2024/01/14 04:09:33;;;;;;;20.53;12.90;;;3.30;90.90;;;;;;938335;151;27413;-86
2024/01/14 04:11:59;;;;;;;23.17;15.20;;;3.30;90.90;;;;;;938700;152;27444;-87
2024/01/14 04:14:26;;;;;;;21.10;14.13;;;3.40;91.00;;;;;;937819;152;27321;-86
2024/01/14 04:16:52;;;;;;;20.13;13.10;;;3.30;91.00;;;;;;939367;151;27316;-85
2024/01/14 04:19:19;;;;;;;20.40;14.23;;;3.40;91.00;;;;;;938730;151;27474;-83
2024/01/14 04:21:46;;;;;;;22.00;14.20;;;3.40;90.90;;;;;;939331;152;27452;-86
2024/01/14 04:24:12;;;;;;;24.63;14.47;;;3.30;90.70;;;;;;939054;151;27329;-86
2024/01/14 04:26:39;;;;;;;22.27;14.13;;;3.30;90.50;;;;;;938855;152;27807;-86
2024/01/14 04:29:05;;;;;;;20.27;13.33;;;3.30;90.40;;;;;;939405;152;27422;-86
2024/01/14 04:31:32;;;;;;;18.93;13.53;;;3.20;90.30;;;;;;939492;152;27373;-86
2024/01/14 04:33:59;;;;;;;21.83;13.20;;;3.20;90.30;;;;;;939119;152;27363;-81
2024/01/14 04:36:25;;;;;;;21.90;14.23;;;3.20;90.30;;;;;;938761;149;27259;-81
2024/01/14 04:38:52;;;;;;;19.93;13.47;;;3.10;90.40;;;;;;939033;152;27394;-82
2024/01/14 04:41:18;;;;;;;20.40;12.57;;;3.10;90.40;;;;;;939266;151;27310;-83
2024/01/14 04:43:45;;;;;;;20.87;13.43;;;3.00;90.50;;;;;;938481;152;27365;-81
2024/01/14 04:46:11;;;;;;;19.00;12.77;;;3.10;90.60;;;;;;938813;152;27348;-83
2024/01/14 04:48:38;;;;;;;18.53;12.83;;;3.00;90.70;;;;;;939142;151;27366;-82
2024/01/14 04:51:05;;;;;;;20.03;12.47;;;3.00;90.80;;;;;;938828;152;27387;-83
2024/01/14 04:53:31;;;;;;;20.20;12.77;;;3.00;91.00;;;;;;939502;151;27922;-88
2024/01/14 04:55:58;;;;;;;19.63;12.50;;;3.00;91.20;;;;;;937886;152;27296;-81
2024/01/14 04:58:24;;;;;;;17.03;12.17;;;3.00;91.20;;;;;;939370;151;27426;-81
2024/01/14 05:00:51;;;;;;;18.17;12.43;;;3.10;91.30;;;;;;939188;152;27304;-81
2024/01/14 05:03:18;;;;;;;18.27;12.47;;;3.10;91.40;;;;;;939180;152;27353;-83
2024/01/14 05:05:44;;;;;;;22.00;13.33;;;3.10;91.50;;;;;;939120;152;27517;-81
2024/01/14 05:08:11;;;;;;;18.33;11.80;;;3.10;91.50;;;;;;938976;150;27338;-81
2024/01/14 05:10:37;;;;;;;17.97;12.17;;;3.20;91.50;;;;;;939408;151;27278;-81
2024/01/14 05:13:04;;;;;;;18.77;11.63;;;3.20;91.50;;;;;;939071;152;27309;-82
2024/01/14 05:15:30;;;;;;;18.00;13.13;;;3.30;91.40;;;;;;938641;152;27369;-81
2024/01/14 05:17:57;;;;;;;17.37;12.30;;;3.30;91.40;;;;;;939190;152;27341;-81
2024/01/14 05:20:24;;;;;;;19.80;13.33;;;3.30;91.30;;;;;;939080;152;27394;-82
2024/01/14 05:22:50;;;;;;;19.10;12.23;;;3.30;91.20;;;;;;939425;151;27317;-81
2024/01/14 05:25:17;;;;;;;19.30;12.00;;;3.30;91.10;;;;;;939305;151;27506;-81
2024/01/14 05:27:43;;;;;;;21.47;12.27;;;3.30;91.10;;;;;;939259;150;27336;-81
2024/01/14 05:30:10;;;;;;;18.73;11.80;;;3.40;91.00;;;;;;939159;152;27379;-81
2024/01/14 05:32:37;;;;;;;20.23;11.90;;;3.40;91.00;;;;;;939440;151;27306;-81
2024/01/14 05:35:05;;;;;;;18.77;12.40;;;3.40;91.00;;;;;;939218;150;27305;-83
2024/01/14 05:37:34;;;;;;;20.70;13.93;;;3.40;91.00;;;;;;938675;151;27411;-81
2024/01/14 05:40:00;;;;;;;16.37;11.43;;;3.40;91.00;;;;;;938779;151;27462;-81
2024/01/14 05:42:27;;;;;;;21.70;13.27;;;3.40;90.90;;;;;;939152;152;27344;-81
2024/01/14 05:44:54;;;;;;;16.87;11.33;;;3.40;90.80;;;;;;939324;152;27424;-87
2024/01/14 05:47:20;;;;;;;19.20;11.27;;;3.40;90.80;;;;;;939252;150;27348;-85
2024/01/14 05:49:47;;;;;;;18.67;12.60;;;3.40;90.90;;;;;;939016;152;27429;-82
2024/01/14 05:52:13;;;;;;;17.17;12.30;;;3.40;90.90;;;;;;939083;152;27398;-87
2024/01/14 05:54:40;;;;;;;15.87;11.07;;;3.40;90.90;;;;;;938979;152;27266;-86
2024/01/14 05:57:07;;;;;;;19.10;12.10;;;3.40;90.90;;;;;;938787;152;27397;-87
2024/01/14 05:59:33;;;;;;;16.87;11.50;;;3.40;91.00;;;;;;939410;150;27314;-85
2024/01/14 06:02:00;;;;;;;15.13;10.30;;;3.40;91.00;;;;;;939152;152;27369;-84
2024/01/14 06:04:27;;;;;;;17.57;11.30;;;3.50;91.20;;;;;;939230;152;27888;-87
2024/01/14 06:06:53;;;;;;;16.63;10.73;;;3.50;90.90;;;;;;939684;151;27871;-86
2024/01/14 06:09:20;;;;;;;17.73;11.40;;;3.50;90.90;;;;;;941414;151;27394;-87
2024/01/14 06:11:46;;;;;;;15.57;11.17;;;3.50;90.80;;;;;;945063;151;27364;-82
2024/01/14 06:14:13;;;;;;;17.00;11.83;;;3.60;90.70;;;;;;945740;151;27460;-86
2024/01/14 06:16:39;;;;;;;19.70;12.13;;;3.60;90.60;;;;;;945632;151;27376;-87
2024/01/14 06:19:06;;;;;;;18.03;11.87;;;3.60;90.60;;;;;;945609;151;27418;-87
2024/01/14 06:21:32;;;;;;;20.40;11.97;;;3.60;90.50;;;;;;945047;151;27336;-84
2024/01/14 06:23:59;;;;;;;17.17;11.80;;;3.60;90.40;;;;;;945544;151;27383;-87
2024/01/14 06:26:26;;;;;;;19.87;13.10;;;3.60;90.30;;;;;;945129;151;27365;-87
2024/01/14 06:28:52;;;;;;;19.13;12.60;;;3.50;90.30;;;;;;945386;151;27516;-86
2024/01/14 06:31:19;;;;;;;16.87;11.77;;;3.50;90.40;;;;;;945671;151;27309;-86
2024/01/14 06:33:45;;;;;;;19.97;12.17;;;3.50;90.30;;;;;;945700;150;27368;-87
2024/01/14 06:36:12;;;;;;;17.70;12.00;;;3.50;90.30;;;;;;945234;151;27291;-87
2024/01/14 06:38:39;;;;;;;19.80;11.87;;;3.50;90.30;;;;;;945489;151;27313;-86
2024/01/14 06:41:05;;;;;;;19.03;12.17;;;3.50;90.30;;;;;;945636;151;27402;-86
2024/01/14 06:43:32;;;;;;;21.43;13.07;;;3.50;90.30;;;;;;945597;151;27368;-83
2024/01/14 06:45:58;;;;;;;18.13;11.50;;;3.50;90.30;;;;;;946071;149;27361;-87
2024/01/14 06:48:25;;;;;;;17.33;11.63;;;3.50;90.30;;;;;;945389;151;27336;-87
2024/01/14 06:50:52;;;;;;;19.03;11.60;;;3.50;90.40;;;;;;944573;149;27348;-86
2024/01/14 06:53:18;;;;;;;22.13;12.67;;;3.50;90.40;;;;;;945764;149;27308;-83
2024/01/14 06:55:45;;;;;;;21.13;13.10;;;3.50;90.30;;;;;;945393;151;27788;-85
2024/01/14 06:58:11;;;;;;;20.47;12.37;;;3.50;90.20;;;;;;944766;149;27299;-87
2024/01/14 07:00:38;;;;;;;24.10;13.53;;;3.50;90.20;;;;;;945203;151;28454;-85
2024/01/14 07:03:04;;;;;;;22.23;13.90;;;3.50;90.20;;;;;;945819;149;27317;-86
2024/01/14 07:05:31;;;;;;;23.67;13.77;;;3.50;90.20;;;;;;944919;149;27526;-86
2024/01/14 07:07:58;;;;;;;22.30;14.10;;;3.50;90.20;;;;;;945335;151;27371;-85
2024/01/14 07:10:24;;;;;;;22.00;14.43;;;3.50;90.20;;;;;;945520;151;27313;-87
2024/01/14 07:12:51;;;;;;;21.63;14.40;;;3.60;90.10;;;;;;945317;151;27307;-86
2024/01/14 07:15:17;;;;;;;21.87;14.57;;;3.50;90.00;;;;;;945144;149;27373;-83
2024/01/14 07:17:44;;;;;;;24.73;14.17;;;3.50;90.00;;;;;;945445;149;27470;-81
2024/01/14 07:20:11;;;;;;;21.03;13.90;;;3.50;90.00;;;;;;945285;151;27320;-81
2024/01/14 07:22:37;;;;;;;22.63;14.90;;;3.50;90.00;;;;;;945394;149;27308;-81
2024/01/14 07:25:04;;;;;;;23.53;14.37;;;3.50;90.10;;;;;;945734;149;27398;-81
2024/01/14 07:27:30;;;;;;;20.93;13.20;;;3.50;90.20;;;;;;945535;151;27456;-80
2024/01/14 07:29:57;;;;;;;25.17;15.03;;;3.50;90.30;;;;;;945097;149;27352;-80
2024/01/14 07:32:24;;;;;;;22.93;14.70;;;3.50;90.20;;;;;;944854;149;27413;-80
2024/01/14 07:34:50;;;;;;;25.90;15.70;;;3.50;90.20;;;;;;945631;149;27328;-80
2024/01/14 07:37:17;;;;;;;24.03;14.87;;;3.50;90.20;;;;;;945438;151;27471;-79
2024/01/14 07:39:43;;;;;;;20.70;13.83;;;3.50;90.30;;;;;;945548;150;27387;-80
2024/01/14 07:42:10;;;;;;;23.03;14.00;;;3.50;90.30;;;;;;945086;151;27299;-80
2024/01/14 07:44:36;;;;;;;24.13;15.10;;;3.50;90.20;;;;;;945071;151;27300;-80
2024/01/14 07:47:03;;;;;;;23.00;14.07;;;3.50;90.20;;;;;;945496;151;27458;-80
2024/01/14 07:49:30;;;;;;;24.00;14.87;;;3.50;90.20;;;;;;945490;151;27384;-80
2024/01/14 07:51:57;;;;;;;22.83;14.40;;;3.60;90.30;;;;;;944589;151;27406;-79
2024/01/14 07:54:23;;;;;;;22.60;15.40;;;3.60;90.20;;;;;;944849;151;27299;-80
2024/01/14 07:56:49;;;;;;;22.63;14.27;;;3.60;89.60;;;;;;945923;149;27352;-83
2024/01/14 07:59:16;;;;;;;23.67;15.07;;;3.60;90.10;;;;;;945299;151;27474;-80
2024/01/14 08:01:43;;;;;;;22.30;15.17;;;3.60;90.40;;;;;;945307;151;27308;-80
2024/01/14 08:04:09;;;;;;;24.47;14.70;;;3.60;90.00;;;;;;944952;151;27321;-80
2024/01/14 08:06:36;;;;;;;24.77;15.77;;;3.60;89.80;;;;;;945661;151;27336;-85
2024/01/14 08:09:02;;;;;;;26.07;15.60;;;3.60;89.60;;;;;;945921;150;27477;-87
2024/01/14 08:11:29;;;;;;;23.17;14.73;;;3.60;89.50;;;;;;941251;151;27385;-88
2024/01/14 08:13:57;;;;;;;25.57;15.00;;;3.60;89.50;;;;;;939157;150;27341;-86
2024/01/14 08:16:22;;;;;;;25.13;14.57;;;3.50;89.50;;;;;;939475;152;27393;-87
2024/01/14 08:18:49;;;;;;;25.90;15.43;;;3.60;89.70;;;;;;939094;151;27434;-88
2024/01/14 08:21:15;;;;;;;28.37;15.77;;;3.60;89.80;;;;;;939575;152;27365;-87
2024/01/14 08:23:43;;;;;;;24.87;15.87;;;3.60;89.80;;;;;;939174;150;27301;-87
2024/01/14 08:26:08;;;;;;;23.33;15.33;;;3.60;89.70;;;;;;939596;152;27308;-81
2024/01/14 08:28:35;;;;;;;26.67;16.80;;;3.60;89.60;;;;;;939537;150;27345;-83
2024/01/14 08:31:02;;;;;;;28.60;16.33;;;3.60;89.50;;;;;;938012;151;27360;-81
2024/01/14 08:33:28;;;;;;;26.63;16.03;;;3.60;89.30;;;;;;938811;151;27313;-82
2024/01/14 08:35:55;;;;;;;29.13;16.77;;;3.60;89.30;;;;;;938477;150;27383;-82
2024/01/14 08:38:21;;;;;;;25.10;15.20;;;3.60;89.30;;;;;;937525;152;27298;-82
2024/01/14 08:40:48;;;;;;;27.57;16.43;;;3.60;89.30;;;;;;938295;151;27369;-82
2024/01/14 08:43:15;;;;;;;26.73;15.93;;;3.60;89.00;;;;;;938494;150;27180;-82
2024/01/14 08:45:41;;;;;;;28.13;15.43;;;3.60;88.90;;;;;;938827;150;27379;-82
2024/01/14 08:48:10;;;;;;;26.43;15.63;;;3.60;88.80;;;;;;938967;150;27395;-83
2024/01/14 08:50:34;;;;;;;24.33;14.40;;;3.60;88.80;;;;;;937808;151;27381;-85
2024/01/14 08:53:01;;;;;;;24.57;14.77;;;3.60;88.90;;;;;;938158;151;27442;-81
2024/01/14 08:55:28;;;;;;;26.27;15.63;;;3.60;88.90;;;;;;939001;150;27297;-82
2024/01/14 08:57:54;;;;;;;26.27;15.13;;;3.60;88.80;;;;;;938889;152;27309;-83
2024/01/14 09:00:21;;;;;;;24.83;15.20;;;3.60;88.70;;;;;;938176;152;27349;-84
2024/01/14 09:02:47;;;;;;;28.57;15.10;;;3.60;88.50;;;;;;938443;151;27368;-82
2024/01/14 09:05:15;;;;;;;26.63;15.63;;;3.60;88.60;;;;;;938428;151;27786;-81
2024/01/14 09:07:40;;;;;;;24.27;15.13;;;3.60;88.50;;;;;;938970;150;27333;-82
2024/01/14 09:10:07;;;;;;;23.17;14.43;;;3.60;88.40;;;;;;938171;152;27366;-82
2024/01/14 09:12:34;;;;;;;24.67;15.00;;;3.60;88.40;;;;;;939219;151;27420;-81
2024/01/14 09:15:00;;;;;;;24.27;15.67;;;3.60;88.50;;;;;;938546;151;27368;-82
2024/01/14 09:17:27;;;;;;;21.73;14.57;;;3.70;88.70;;;;;;938571;150;27345;-82
2024/01/14 09:19:53;;;;;;;22.83;14.03;;;3.70;88.50;;;;;;938021;152;27880;-83
2024/01/14 09:22:20;;;;;;;24.73;14.43;;;3.70;88.50;;;;;;938741;151;27447;-82
2024/01/14 09:24:47;;;;;;;23.27;14.43;;;3.70;88.10;;;;;;920809;152;28013;-82
2024/01/14 09:27:13;;;;;;;22.07;13.63;;;3.60;87.90;;;;;;932960;151;27404;-82
2024/01/14 09:29:40;;;;;;;24.83;14.50;;;3.60;87.90;;;;;;923307;152;27283;-83
2024/01/14 09:32:06;;;;;;;22.00;14.47;;;3.70;87.80;;;;;;912242;152;27476;-83
2024/01/14 09:34:33;;;;;;;24.40;13.97;;;3.60;87.80;;;;;;922028;151;27367;-82
2024/01/14 09:37:00;;;;;;;23.57;14.00;;;3.60;87.90;;;;;;933173;151;27287;-82
2024/01/14 09:39:26;;;;;;;24.90;13.43;;;3.60;88.10;;;;;;919588;152;27338;-82
2024/01/14 09:42:08;;;;;;;24.10;14.33;;;3.60;88.20;;;;;;943452;149;27807;-81
2024/01/14 09:44:34;;;;;;;23.80;15.20;;;3.70;88.40;;;;;;955344;147;27427;-79
2024/01/14 09:47:01;;;;;;;22.40;14.27;;;3.70;88.40;;;;;;956928;147;27416;-80
2024/01/14 09:49:27;;;;;;;22.50;14.33;;;3.70;88.70;;;;;;956538;148;27296;-80
2024/01/14 09:51:55;;;;;;;25.37;15.07;;;3.80;88.90;;;;;;957537;148;27321;-80
2024/01/14 09:54:21;;;;;;;23.43;13.97;;;3.80;88.90;;;;;;956145;148;27647;-80
2024/01/14 09:56:47;;;;;;;23.60;14.30;;;3.90;88.70;;;;;;957564;148;27922;-80
2024/01/14 09:59:14;;;;;;;23.67;15.13;;;3.90;88.50;;;;;;957260;148;27280;-80
2024/01/14 10:01:40;;;;;;;25.80;15.60;;;4.00;88.40;;;;;;956852;148;27303;-80
2024/01/14 10:04:08;;;;;;;23.83;15.60;;;4.00;87.80;;;;;;957806;147;27446;-83
2024/01/14 10:06:34;;;;;;;22.93;13.77;;;4.00;87.30;;;;;;957494;148;28360;-80
2024/01/14 10:09:00;;;;;;;19.67;12.90;;;4.00;87.00;;;;;;957036;148;27435;-81
2024/01/14 10:11:27;;;;;;;23.67;14.50;;;4.00;86.80;;;;;;957385;146;27260;-83
2024/01/14 10:13:53;;;;;;;22.47;14.13;;;4.00;86.90;;;;;;956127;149;27448;-81
2024/01/14 10:16:21;;;;;;;22.97;15.47;;;4.00;87.00;;;;;;956389;148;27415;-80
2024/01/14 10:18:46;;;;;;;22.73;14.27;;;4.00;87.00;;;;;;956114;148;27358;-80
2024/01/14 10:21:13;;;;;;;23.73;14.27;;;4.00;86.90;;;;;;956756;148;27392;-80
2024/01/14 10:23:40;;;;;;;23.57;13.87;;;4.00;86.80;;;;;;956135;148;27450;-80
2024/01/14 10:26:06;;;;;;;23.00;14.37;;;4.10;86.70;;;;;;956685;148;27354;-81
2024/01/14 10:28:33;;;;;;;23.77;14.60;;;4.00;86.40;;;;;;956348;148;27315;-81
2024/01/14 10:31:00;;;;;;;22.67;14.07;;;4.10;86.50;;;;;;956166;148;27294;-81
2024/01/14 10:33:26;;;;;;;23.57;14.47;;;4.10;86.40;;;;;;956668;149;27335;-83
2024/01/14 10:35:53;;;;;;;21.63;13.50;;;4.10;86.20;;;;;;956802;148;27464;-81
2024/01/14 10:38:22;;;;;;;25.97;15.83;;;4.00;86.00;;;;;;956497;147;27326;-80
2024/01/14 10:40:49;;;;;;;24.20;15.60;;;4.10;85.90;;;;;;956280;148;27248;-81
2024/01/14 10:43:15;;;;;;;22.70;14.60;;;4.00;85.70;;;;;;956548;148;27282;-81
2024/01/14 10:45:42;;;;;;;23.83;14.13;;;4.00;85.60;;;;;;956668;148;27292;-84
2024/01/14 10:48:15;;;;;;;24.93;15.73;;;4.00;85.60;;;;;;956467;148;27322;-80
2024/01/14 10:50:40;;;;;;;23.63;13.73;;;4.00;85.70;;;;;;956335;148;27279;-81
2024/01/14 10:53:07;;;;;;;24.67;14.83;;;4.00;85.90;;;;;;956068;148;27380;-83
2024/01/14 10:55:45;;;;;;;23.10;13.67;;;4.00;86.20;;;;;;955912;149;27342;-82
2024/01/14 10:58:17;;;;;;;23.60;13.23;;;4.00;86.60;;;;;;952939;149;27287;-81
2024/01/14 11:00:44;;;;;;;24.77;14.63;;;4.00;86.80;;;;;;954703;148;27326;-83
2024/01/14 11:03:10;;;;;;;22.20;14.23;;;4.10;86.20;;;;;;956076;149;27874;-80
2024/01/14 11:05:37;;;;;;;23.90;14.57;;;4.10;85.70;;;;;;955132;148;27400;-80
2024/01/14 11:08:04;;;;;;;23.17;14.73;;;4.10;85.30;;;;;;956037;148;27319;-83
2024/01/14 11:10:30;;;;;;;23.10;14.07;;;4.10;85.30;;;;;;955935;148;27275;-82
2024/01/14 11:13:00;;;;;;;25.33;14.40;;;4.10;85.30;;;;;;956168;148;27387;-80
2024/01/14 11:15:29;;;;;;;23.27;14.50;;;4.10;85.40;;;;;;954424;148;27926;-81
2024/01/14 11:18:09;;;;;;;23.03;13.63;;;4.10;85.40;;;;;;955267;148;27644;-81
2024/01/14 11:20:34;;;;;;;22.00;13.20;;;4.10;85.40;;;;;;954849;148;27442;-82
2024/01/14 11:23:01;;;;;;;21.67;13.43;;;4.10;85.40;;;;;;956547;148;27342;-81
2024/01/14 11:25:33;;;;;;;21.10;13.57;;;4.10;85.30;;;;;;956519;148;27344;-79
2024/01/14 11:28:03;;;;;;;21.33;13.60;;;4.10;85.30;;;;;;955968;149;27276;-80
2024/01/14 11:30:48;;;;;;;20.77;12.57;;;4.10;85.30;;;;;;955732;148;27323;-80
2024/01/14 11:33:29;;;;;;;19.43;12.07;;;4.10;85.40;;;;;;956324;148;27435;-85
2024/01/14 11:35:56;;;;;;;20.67;12.67;;;4.10;85.40;;;;;;956324;148;27357;-89
2024/01/14 11:38:37;;;;;;;19.57;13.37;;;4.10;85.30;;;;;;956548;148;27287;-89
2024/01/14 11:41:22;;;;;;;21.90;14.33;;;4.10;85.00;;;;;;956276;147;27319;-86
2024/01/14 11:43:49;;;;;;;20.47;12.47;;;4.10;85.10;;;;;;955862;148;27341;-84
2024/01/14 11:46:34;;;;;;;18.67;12.00;;;4.10;85.30;;;;;;955617;148;27339;-88
2024/01/14 11:49:06;;;;;;;17.93;11.13;;;4.20;85.60;;;;;;956423;148;28007;-89
2024/01/14 11:51:34;;;;;;;19.23;12.27;;;4.20;85.60;;;;;;956296;148;27347;-88
2024/01/14 11:54:00;;;;;;;20.27;12.20;;;4.20;85.60;;;;;;956233;148;27372;-85
2024/01/14 11:56:31;;;;;;;18.40;12.07;;;4.30;85.40;;;;;;955859;149;27875;-86
2024/01/14 11:59:01;;;;;;;18.23;13.03;;;4.30;85.30;;;;;;956524;149;27784;-86
2024/01/14 12:01:27;;;;;;;20.93;13.30;;;4.30;85.10;;;;;;956269;148;27236;-84
2024/01/14 12:04:00;;;;;;;19.20;12.23;;;4.40;85.10;;;;;;955360;149;27444;-85
2024/01/14 12:06:26;;;;;;;19.73;13.73;;;4.40;85.00;;;;;;955463;149;27240;-87
2024/01/14 12:09:02;;;;;;;19.13;13.10;;;4.40;84.70;;;;;;955952;147;27378;-87
2024/01/14 12:11:28;;;;;;;17.57;12.43;;;4.40;84.80;;;;;;955709;148;27415;-81
2024/01/14 12:13:55;;;;;;;21.63;13.10;;;4.50;84.80;;;;;;950210;148;27380;-84
2024/01/14 12:16:21;;;;;;;19.43;12.37;;;4.50;84.90;;;;;;947004;148;28174;-88
2024/01/14 12:18:48;;;;;;;17.93;12.07;;;4.50;84.80;;;;;;946913;148;27386;-85
2024/01/14 12:21:17;;;;;;;17.37;10.97;;;4.60;84.60;;;;;;945410;148;27354;-86
2024/01/14 12:23:44;;;;;;;20.67;14.00;;;4.60;84.50;;;;;;947170;148;27457;-83
2024/01/14 12:26:11;;;;;;;20.53;12.97;;;4.70;84.30;;;;;;946610;148;27376;-86
2024/01/14 12:28:37;;;;;;;21.63;13.13;;;4.70;84.10;;;;;;947626;148;27259;-87
2024/01/14 12:31:06;;;;;;;18.07;12.73;;;4.70;84.00;;;;;;947708;148;27364;-88
2024/01/14 12:33:35;;;;;;;22.87;14.67;;;4.70;83.60;;;;;;947678;148;27356;-87